sensor_id;sensor_type;location;lat;lon;timestamp;P1;durP1;ratioP1;P2;durP2;ratioP2
14056;SDS011;7103;54.300;10.180;2023-01-01T00:02:23;0.20;;;0.20;;
14056;SDS011;7103;54.300;10.180;2023-01-01T00:04:50;0.10;;;0.10;;
14056;SDS011;7103;54.300;10.180;2023-01-01T00:07:17;0.20;;;0.20;;
14056;SDS011;7103;54.300;10.180;2023-01-01T00:09:44;0.20;;;0.20;;
14056;SDS011;7103;54.300;10.180;2023-01-01T00:12:32;0.20;;;0.20;;
14056;SDS011;7103;54.300;10.180;2023-01-01T00:15:00;0.20;;;0.20;;
14056;SDS011;7103;54.300;10.180;2023-01-01T00:17:27;0.20;;;0.20;;
14056;SDS011;7103;54.300;10.180;2023-01-01T00:19:55;0.20;;;0.20;;
14056;SDS011;7103;54.300;10.180;2023-01-01T00:22:22;0.20;;;0.20;;
14056;SDS011;7103;54.300;10.180;2023-01-01T00:25:09;0.20;;;0.20;;
14056;SDS011;7103;54.300;10.180;2023-01-01T00:27:39;0.20;;;0.20;;
14056;SDS011;7103;54.300;10.180;2023-01-01T00:30:08;0.20;;;0.20;;
14056;SDS011;7103;54.300;10.180;2023-01-01T00:32:36;0.20;;;0.20;;
14056;SDS011;7103;54.300;10.180;2023-01-01T00:35:03;0.20;;;0.20;;
14056;SDS011;7103;54.300;10.180;2023-01-01T00:37:30;0.20;;;0.20;;
14056;SDS011;7103;54.300;10.180;2023-01-01T00:39:57;0.20;;;0.20;;
14056;SDS011;7103;54.300;10.180;2023-01-01T00:42:24;0.20;;;0.20;;
14056;SDS011;7103;54.300;10.180;2023-01-01T00:44:51;0.20;;;0.20;;
14056;SDS011;7103;54.300;10.180;2023-01-01T00:47:17;0.20;;;0.20;;
14056;SDS011;7103;54.300;10.180;2023-01-01T00:49:44;0.20;;;0.20;;
14056;SDS011;7103;54.300;10.180;2023-01-01T00:52:11;0.20;;;0.20;;
14056;SDS011;7103;54.300;10.180;2023-01-01T00:54:38;0.20;;;0.20;;
14056;SDS011;7103;54.300;10.180;2023-01-01T00:57:05;0.20;;;0.20;;
14056;SDS011;7103;54.300;10.180;2023-01-01T00:59:32;0.20;;;0.20;;
14056;SDS011;7103;54.300;10.180;2023-01-01T01:01:58;0.20;;;0.20;;
14056;SDS011;7103;54.300;10.180;2023-01-01T01:04:25;0.20;;;0.20;;
14056;SDS011;7103;54.300;10.180;2023-01-01T01:06:52;0.17;;;0.17;;
14056;SDS011;7103;54.300;10.180;2023-01-01T01:09:19;0.20;;;0.20;;
14056;SDS011;7103;54.300;10.180;2023-01-01T01:11:46;0.20;;;0.20;;
14056;SDS011;7103;54.300;10.180;2023-01-01T01:14:13;0.20;;;0.20;;
14056;SDS011;7103;54.300;10.180;2023-01-01T01:16:40;0.20;;;0.20;;
14056;SDS011;7103;54.300;10.180;2023-01-01T01:19:07;0.20;;;0.20;;
14056;SDS011;7103;54.300;10.180;2023-01-01T01:21:40;0.20;;;0.20;;
14056;SDS011;7103;54.300;10.180;2023-01-01T01:24:08;0.20;;;0.20;;
14056;SDS011;7103;54.300;10.180;2023-01-01T01:26:35;0.20;;;0.20;;
14056;SDS011;7103;54.300;10.180;2023-01-01T01:29:02;0.20;;;0.20;;
14056;SDS011;7103;54.300;10.180;2023-01-01T01:31:30;0.20;;;0.20;;
14056;SDS011;7103;54.300;10.180;2023-01-01T01:33:58;0.20;;;0.20;;
14056;SDS011;7103;54.300;10.180;2023-01-01T01:36:25;0.30;;;0.30;;
14056;SDS011;7103;54.300;10.180;2023-01-01T01:38:53;0.20;;;0.20;;
14056;SDS011;7103;54.300;10.180;2023-01-01T01:41:21;0.20;;;0.20;;
14056;SDS011;7103;54.300;10.180;2023-01-01T01:44:01;0.20;;;0.20;;
14056;SDS011;7103;54.300;10.180;2023-01-01T01:46:40;0.20;;;0.20;;
14056;SDS011;7103;54.300;10.180;2023-01-01T01:49:13;0.30;;;0.30;;
14056;SDS011;7103;54.300;10.180;2023-01-01T01:51:47;0.30;;;0.30;;
14056;SDS011;7103;54.300;10.180;2023-01-01T01:54:16;0.20;;;0.20;;
14056;SDS011;7103;54.300;10.180;2023-01-01T01:56:54;0.20;;;0.20;;
14056;SDS011;7103;54.300;10.180;2023-01-01T01:59:29;0.30;;;0.30;;
14056;SDS011;7103;54.300;10.180;2023-01-01T02:01:58;0.20;;;0.20;;
14056;SDS011;7103;54.300;10.180;2023-01-01T02:04:26;0.20;;;0.20;;
14056;SDS011;7103;54.300;10.180;2023-01-01T02:06:53;0.20;;;0.20;;
14056;SDS011;7103;54.300;10.180;2023-01-01T02:09:21;0.20;;;0.20;;
14056;SDS011;7103;54.300;10.180;2023-01-01T02:11:48;0.20;;;0.20;;
14056;SDS011;7103;54.300;10.180;2023-01-01T02:14:15;0.30;;;0.30;;
14056;SDS011;7103;54.300;10.180;2023-01-01T02:22:16;0.30;;;0.30;;
14056;SDS011;7103;54.300;10.180;2023-01-01T02:28:09;0.30;;;0.30;;
14056;SDS011;7103;54.300;10.180;2023-01-01T02:30:49;0.20;;;0.20;;
14056;SDS011;7103;54.300;10.180;2023-01-01T02:33:19;0.20;;;0.20;;
14056;SDS011;7103;54.300;10.180;2023-01-01T02:35:51;0.27;;;0.27;;
14056;SDS011;7103;54.300;10.180;2023-01-01T02:38:27;0.20;;;0.20;;
14056;SDS011;7103;54.300;10.180;2023-01-01T02:41:04;0.20;;;0.20;;
14056;SDS011;7103;54.300;10.180;2023-01-01T02:43:36;0.20;;;0.20;;
14056;SDS011;7103;54.300;10.180;2023-01-01T02:46:04;0.20;;;0.20;;
14056;SDS011;7103;54.300;10.180;2023-01-01T02:48:39;0.30;;;0.30;;
14056;SDS011;7103;54.300;10.180;2023-01-01T03:10:13;0.30;;;0.30;;
14056;SDS011;7103;54.300;10.180;2023-01-01T03:12:50;0.20;;;0.20;;
14056;SDS011;7103;54.300;10.180;2023-01-01T03:15:40;0.20;;;0.20;;
14056;SDS011;7103;54.300;10.180;2023-01-01T03:18:14;0.30;;;0.30;;
14056;SDS011;7103;54.300;10.180;2023-01-01T03:20:50;0.20;;;0.20;;
14056;SDS011;7103;54.300;10.180;2023-01-01T03:23:22;0.20;;;0.20;;
14056;SDS011;7103;54.300;10.180;2023-01-01T03:25:55;0.20;;;0.20;;
14056;SDS011;7103;54.300;10.180;2023-01-01T03:28:27;0.30;;;0.30;;
14056;SDS011;7103;54.300;10.180;2023-01-01T03:31:00;0.20;;;0.20;;
14056;SDS011;7103;54.300;10.180;2023-01-01T03:33:34;0.20;;;0.20;;
14056;SDS011;7103;54.300;10.180;2023-01-01T03:36:10;0.30;;;0.30;;
14056;SDS011;7103;54.300;10.180;2023-01-01T03:38:46;0.20;;;0.20;;
14056;SDS011;7103;54.300;10.180;2023-01-01T03:44:04;0.20;;;0.20;;
14056;SDS011;7103;54.300;10.180;2023-01-01T03:46:34;0.20;;;0.20;;
14056;SDS011;7103;54.300;10.180;2023-01-01T03:49:02;0.20;;;0.20;;
14056;SDS011;7103;54.300;10.180;2023-01-01T03:54:11;0.20;;;0.20;;
14056;SDS011;7103;54.300;10.180;2023-01-01T03:56:51;0.10;;;0.10;;
14056;SDS011;7103;54.300;10.180;2023-01-01T03:59:29;0.10;;;0.10;;
14056;SDS011;7103;54.300;10.180;2023-01-01T04:02:02;0.10;;;0.10;;
14056;SDS011;7103;54.300;10.180;2023-01-01T04:04:33;0.10;;;0.10;;
14056;SDS011;7103;54.300;10.180;2023-01-01T04:07:01;0.10;;;0.10;;
14056;SDS011;7103;54.300;10.180;2023-01-01T04:09:40;0.10;;;0.10;;
14056;SDS011;7103;54.300;10.180;2023-01-01T04:12:13;0.10;;;0.10;;
14056;SDS011;7103;54.300;10.180;2023-01-01T04:14:42;0.10;;;0.10;;
14056;SDS011;7103;54.300;10.180;2023-01-01T04:17:09;0.10;;;0.10;;
14056;SDS011;7103;54.300;10.180;2023-01-01T04:19:37;0.10;;;0.10;;
14056;SDS011;7103;54.300;10.180;2023-01-01T04:22:04;0.00;;;0.00;;
14056;SDS011;7103;54.300;10.180;2023-01-01T04:24:31;0.00;;;0.00;;
14056;SDS011;7103;54.300;10.180;2023-01-01T04:26:58;0.00;;;0.00;;
14056;SDS011;7103;54.300;10.180;2023-01-01T04:29:25;0.00;;;0.00;;
14056;SDS011;7103;54.300;10.180;2023-01-01T04:31:52;0.00;;;0.00;;
14056;SDS011;7103;54.300;10.180;2023-01-01T04:34:19;0.00;;;0.00;;
14056;SDS011;7103;54.300;10.180;2023-01-01T04:36:46;0.00;;;0.00;;
14056;SDS011;7103;54.300;10.180;2023-01-01T04:39:13;0.00;;;0.00;;
14056;SDS011;7103;54.300;10.180;2023-01-01T04:41:40;0.07;;;0.07;;
14056;SDS011;7103;54.300;10.180;2023-01-01T04:44:06;0.00;;;0.00;;
14056;SDS011;7103;54.300;10.180;2023-01-01T04:46:33;0.00;;;0.00;;
14056;SDS011;7103;54.300;10.180;2023-01-01T04:49:00;0.07;;;0.07;;
14056;SDS011;7103;54.300;10.180;2023-01-01T04:51:27;0.00;;;0.00;;
14056;SDS011;7103;54.300;10.180;2023-01-01T04:53:54;0.00;;;0.00;;
14056;SDS011;7103;54.300;10.180;2023-01-01T04:56:20;0.00;;;0.00;;
14056;SDS011;7103;54.300;10.180;2023-01-01T04:58:48;0.00;;;0.00;;
14056;SDS011;7103;54.300;10.180;2023-01-01T05:01:17;0.00;;;0.00;;
14056;SDS011;7103;54.300;10.180;2023-01-01T05:03:46;0.00;;;0.00;;
14056;SDS011;7103;54.300;10.180;2023-01-01T05:06:14;0.10;;;0.10;;
14056;SDS011;7103;54.300;10.180;2023-01-01T05:08:42;0.10;;;0.10;;
14056;SDS011;7103;54.300;10.180;2023-01-01T05:11:15;0.07;;;0.07;;
14056;SDS011;7103;54.300;10.180;2023-01-01T05:13:47;0.10;;;0.10;;
14056;SDS011;7103;54.300;10.180;2023-01-01T05:16:16;0.10;;;0.10;;
14056;SDS011;7103;54.300;10.180;2023-01-01T05:18:47;0.00;;;0.00;;
14056;SDS011;7103;54.300;10.180;2023-01-01T05:21:16;0.10;;;0.10;;
14056;SDS011;7103;54.300;10.180;2023-01-01T05:23:47;0.00;;;0.00;;
14056;SDS011;7103;54.300;10.180;2023-01-01T05:26:18;0.00;;;0.00;;
14056;SDS011;7103;54.300;10.180;2023-01-01T05:28:47;0.00;;;0.00;;
14056;SDS011;7103;54.300;10.180;2023-01-01T05:31:18;0.00;;;0.00;;
14056;SDS011;7103;54.300;10.180;2023-01-01T05:33:49;0.00;;;0.00;;
14056;SDS011;7103;54.300;10.180;2023-01-01T05:36:19;0.00;;;0.00;;
14056;SDS011;7103;54.300;10.180;2023-01-01T05:38:50;0.00;;;0.00;;
14056;SDS011;7103;54.300;10.180;2023-01-01T05:41:19;0.00;;;0.00;;
14056;SDS011;7103;54.300;10.180;2023-01-01T05:43:47;0.00;;;0.00;;
14056;SDS011;7103;54.300;10.180;2023-01-01T05:46:16;0.00;;;0.00;;
14056;SDS011;7103;54.300;10.180;2023-01-01T05:48:45;0.00;;;0.00;;
14056;SDS011;7103;54.300;10.180;2023-01-01T05:51:16;0.00;;;0.00;;
14056;SDS011;7103;54.300;10.180;2023-01-01T05:53:45;0.00;;;0.00;;
14056;SDS011;7103;54.300;10.180;2023-01-01T05:56:13;0.00;;;0.00;;
14056;SDS011;7103;54.300;10.180;2023-01-01T05:58:41;0.00;;;0.00;;
14056;SDS011;7103;54.300;10.180;2023-01-01T06:03:48;0.10;;;0.10;;
14056;SDS011;7103;54.300;10.180;2023-01-01T06:06:16;0.00;;;0.00;;
14056;SDS011;7103;54.300;10.180;2023-01-01T06:08:48;0.00;;;0.00;;
14056;SDS011;7103;54.300;10.180;2023-01-01T06:11:19;0.00;;;0.00;;
14056;SDS011;7103;54.300;10.180;2023-01-01T06:13:47;0.10;;;0.10;;
14056;SDS011;7103;54.300;10.180;2023-01-01T06:16:16;0.10;;;0.10;;
14056;SDS011;7103;54.300;10.180;2023-01-01T06:18:43;0.10;;;0.10;;
14056;SDS011;7103;54.300;10.180;2023-01-01T06:21:11;0.10;;;0.10;;
14056;SDS011;7103;54.300;10.180;2023-01-01T06:23:43;0.10;;;0.10;;
14056;SDS011;7103;54.300;10.180;2023-01-01T06:26:12;0.10;;;0.10;;
14056;SDS011;7103;54.300;10.180;2023-01-01T06:28:43;0.10;;;0.10;;
14056;SDS011;7103;54.300;10.180;2023-01-01T06:31:11;0.10;;;0.10;;
14056;SDS011;7103;54.300;10.180;2023-01-01T06:33:41;0.10;;;0.10;;
14056;SDS011;7103;54.300;10.180;2023-01-01T06:36:09;0.10;;;0.10;;
14056;SDS011;7103;54.300;10.180;2023-01-01T06:38:39;0.10;;;0.10;;
14056;SDS011;7103;54.300;10.180;2023-01-01T06:41:11;0.10;;;0.10;;
14056;SDS011;7103;54.300;10.180;2023-01-01T06:43:40;0.10;;;0.10;;
14056;SDS011;7103;54.300;10.180;2023-01-01T06:48:48;0.10;;;0.10;;
14056;SDS011;7103;54.300;10.180;2023-01-01T06:51:18;0.10;;;0.10;;
14056;SDS011;7103;54.300;10.180;2023-01-01T06:53:47;0.10;;;0.10;;
14056;SDS011;7103;54.300;10.180;2023-01-01T06:56:15;0.10;;;0.10;;
14056;SDS011;7103;54.300;10.180;2023-01-01T06:58:43;0.10;;;0.10;;
14056;SDS011;7103;54.300;10.180;2023-01-01T07:01:14;0.10;;;0.10;;
14056;SDS011;7103;54.300;10.180;2023-01-01T07:03:48;0.10;;;0.10;;
14056;SDS011;7103;54.300;10.180;2023-01-01T07:06:16;0.10;;;0.10;;
14056;SDS011;7103;54.300;10.180;2023-01-01T07:08:43;0.10;;;0.10;;
14056;SDS011;7103;54.300;10.180;2023-01-01T07:11:10;0.10;;;0.10;;
14056;SDS011;7103;54.300;10.180;2023-01-01T07:13:37;0.10;;;0.10;;
14056;SDS011;7103;54.300;10.180;2023-01-01T07:16:04;0.10;;;0.10;;
14056;SDS011;7103;54.300;10.180;2023-01-01T07:18:38;0.10;;;0.10;;
14056;SDS011;7103;54.300;10.180;2023-01-01T07:21:06;0.10;;;0.10;;
14056;SDS011;7103;54.300;10.180;2023-01-01T07:23:55;0.10;;;0.10;;
14056;SDS011;7103;54.300;10.180;2023-01-01T07:26:23;0.10;;;0.10;;
14056;SDS011;7103;54.300;10.180;2023-01-01T07:28:51;0.10;;;0.10;;
14056;SDS011;7103;54.300;10.180;2023-01-01T07:31:18;0.10;;;0.10;;
14056;SDS011;7103;54.300;10.180;2023-01-01T07:33:45;0.10;;;0.10;;
14056;SDS011;7103;54.300;10.180;2023-01-01T07:36:12;0.10;;;0.10;;
14056;SDS011;7103;54.300;10.180;2023-01-01T07:38:39;0.10;;;0.10;;
14056;SDS011;7103;54.300;10.180;2023-01-01T07:41:06;0.10;;;0.10;;
14056;SDS011;7103;54.300;10.180;2023-01-01T07:43:33;0.10;;;0.10;;
14056;SDS011;7103;54.300;10.180;2023-01-01T07:46:00;0.10;;;0.10;;
14056;SDS011;7103;54.300;10.180;2023-01-01T07:48:27;0.10;;;0.10;;
14056;SDS011;7103;54.300;10.180;2023-01-01T07:50:57;0.10;;;0.10;;
14056;SDS011;7103;54.300;10.180;2023-01-01T07:53:24;0.10;;;0.10;;
14056;SDS011;7103;54.300;10.180;2023-01-01T07:55:51;0.10;;;0.10;;
14056;SDS011;7103;54.300;10.180;2023-01-01T07:58:17;0.10;;;0.10;;
14056;SDS011;7103;54.300;10.180;2023-01-01T08:00:48;0.10;;;0.10;;
14056;SDS011;7103;54.300;10.180;2023-01-01T08:03:15;0.10;;;0.10;;
14056;SDS011;7103;54.300;10.180;2023-01-01T08:05:42;0.10;;;0.10;;
14056;SDS011;7103;54.300;10.180;2023-01-01T08:08:09;0.10;;;0.10;;
14056;SDS011;7103;54.300;10.180;2023-01-01T08:10:37;0.10;;;0.10;;
14056;SDS011;7103;54.300;10.180;2023-01-01T08:13:04;0.10;;;0.10;;
14056;SDS011;7103;54.300;10.180;2023-01-01T08:15:34;0.10;;;0.10;;
14056;SDS011;7103;54.300;10.180;2023-01-01T08:18:02;0.10;;;0.10;;
14056;SDS011;7103;54.300;10.180;2023-01-01T08:20:30;0.10;;;0.10;;
14056;SDS011;7103;54.300;10.180;2023-01-01T08:22:59;0.20;;;0.20;;
14056;SDS011;7103;54.300;10.180;2023-01-01T08:25:32;0.10;;;0.10;;
14056;SDS011;7103;54.300;10.180;2023-01-01T08:27:59;0.10;;;0.10;;
14056;SDS011;7103;54.300;10.180;2023-01-01T08:30:26;0.13;;;0.13;;
14056;SDS011;7103;54.300;10.180;2023-01-01T08:32:53;0.10;;;0.10;;
14056;SDS011;7103;54.300;10.180;2023-01-01T08:35:20;0.20;;;0.20;;
14056;SDS011;7103;54.300;10.180;2023-01-01T08:37:47;0.10;;;0.10;;
14056;SDS011;7103;54.300;10.180;2023-01-01T08:40:14;0.10;;;0.10;;
14056;SDS011;7103;54.300;10.180;2023-01-01T08:42:41;0.20;;;0.20;;
14056;SDS011;7103;54.300;10.180;2023-01-01T08:45:08;0.20;;;0.20;;
14056;SDS011;7103;54.300;10.180;2023-01-01T08:47:35;0.10;;;0.10;;
14056;SDS011;7103;54.300;10.180;2023-01-01T08:50:02;0.10;;;0.10;;
14056;SDS011;7103;54.300;10.180;2023-01-01T08:52:30;0.10;;;0.10;;
14056;SDS011;7103;54.300;10.180;2023-01-01T08:54:57;0.10;;;0.10;;
14056;SDS011;7103;54.300;10.180;2023-01-01T08:57:24;0.20;;;0.20;;
14056;SDS011;7103;54.300;10.180;2023-01-01T08:59:50;0.20;;;0.20;;
14056;SDS011;7103;54.300;10.180;2023-01-01T09:02:17;0.20;;;0.20;;
14056;SDS011;7103;54.300;10.180;2023-01-01T09:04:44;0.20;;;0.20;;
14056;SDS011;7103;54.300;10.180;2023-01-01T09:07:11;0.20;;;0.20;;
14056;SDS011;7103;54.300;10.180;2023-01-01T09:09:38;0.20;;;0.20;;
14056;SDS011;7103;54.300;10.180;2023-01-01T09:12:05;0.20;;;0.20;;
14056;SDS011;7103;54.300;10.180;2023-01-01T09:14:34;0.20;;;0.20;;
14056;SDS011;7103;54.300;10.180;2023-01-01T09:17:01;0.20;;;0.20;;
14056;SDS011;7103;54.300;10.180;2023-01-01T09:19:28;0.20;;;0.20;;
14056;SDS011;7103;54.300;10.180;2023-01-01T09:21:55;0.20;;;0.20;;
14056;SDS011;7103;54.300;10.180;2023-01-01T09:24:22;0.20;;;0.20;;
14056;SDS011;7103;54.300;10.180;2023-01-01T09:26:49;0.30;;;0.30;;
14056;SDS011;7103;54.300;10.180;2023-01-01T09:29:17;0.20;;;0.20;;
14056;SDS011;7103;54.300;10.180;2023-01-01T09:31:46;0.20;;;0.20;;
14056;SDS011;7103;54.300;10.180;2023-01-01T09:34:14;0.20;;;0.20;;
14056;SDS011;7103;54.300;10.180;2023-01-01T09:36:41;0.20;;;0.20;;
14056;SDS011;7103;54.300;10.180;2023-01-01T09:39:09;0.27;;;0.27;;
14056;SDS011;7103;54.300;10.180;2023-01-01T09:41:42;0.20;;;0.20;;
14056;SDS011;7103;54.300;10.180;2023-01-01T09:47:37;0.30;;;0.30;;
14056;SDS011;7103;54.300;10.180;2023-01-01T09:50:05;0.30;;;0.30;;
14056;SDS011;7103;54.300;10.180;2023-01-01T09:52:48;0.30;;;0.30;;
14056;SDS011;7103;54.300;10.180;2023-01-01T09:55:23;0.20;;;0.20;;
14056;SDS011;7103;54.300;10.180;2023-01-01T09:57:53;0.20;;;0.20;;
14056;SDS011;7103;54.300;10.180;2023-01-01T10:00:22;0.20;;;0.20;;
14056;SDS011;7103;54.300;10.180;2023-01-01T10:11:26;0.30;;;0.30;;
14056;SDS011;7103;54.300;10.180;2023-01-01T10:14:14;0.20;;;0.20;;
14056;SDS011;7103;54.300;10.180;2023-01-01T10:16:56;0.20;;;0.20;;
14056;SDS011;7103;54.300;10.180;2023-01-01T10:19:30;0.20;;;0.20;;
14056;SDS011;7103;54.300;10.180;2023-01-01T10:22:08;0.30;;;0.30;;
14056;SDS011;7103;54.300;10.180;2023-01-01T10:24:55;0.30;;;0.30;;
14056;SDS011;7103;54.300;10.180;2023-01-01T10:28:04;0.20;;;0.20;;
14056;SDS011;7103;54.300;10.180;2023-01-01T10:30:36;0.20;;;0.20;;
14056;SDS011;7103;54.300;10.180;2023-01-01T10:33:07;0.30;;;0.30;;
14056;SDS011;7103;54.300;10.180;2023-01-01T10:35:47;0.30;;;0.30;;
14056;SDS011;7103;54.300;10.180;2023-01-01T10:38:24;0.20;;;0.20;;
14056;SDS011;7103;54.300;10.180;2023-01-01T10:40:52;0.20;;;0.20;;
14056;SDS011;7103;54.300;10.180;2023-01-01T10:43:25;0.20;;;0.20;;
14056;SDS011;7103;54.300;10.180;2023-01-01T10:45:53;0.30;;;0.30;;
14056;SDS011;7103;54.300;10.180;2023-01-01T10:48:21;0.20;;;0.20;;
14056;SDS011;7103;54.300;10.180;2023-01-01T10:50:51;0.20;;;0.20;;
14056;SDS011;7103;54.300;10.180;2023-01-01T11:01:19;0.30;;;0.30;;
14056;SDS011;7103;54.300;10.180;2023-01-01T11:03:59;0.20;;;0.20;;
14056;SDS011;7103;54.300;10.180;2023-01-01T11:06:41;0.20;;;0.20;;
14056;SDS011;7103;54.300;10.180;2023-01-01T11:09:25;0.20;;;0.20;;
14056;SDS011;7103;54.300;10.180;2023-01-01T11:11:54;0.30;;;0.30;;
14056;SDS011;7103;54.300;10.180;2023-01-01T11:14:36;0.30;;;0.30;;
14056;SDS011;7103;54.300;10.180;2023-01-01T11:17:06;0.30;;;0.30;;
14056;SDS011;7103;54.300;10.180;2023-01-01T11:19:38;0.30;;;0.30;;
14056;SDS011;7103;54.300;10.180;2023-01-01T11:25:19;0.20;;;0.20;;
14056;SDS011;7103;54.300;10.180;2023-01-01T11:28:12;0.20;;;0.20;;
14056;SDS011;7103;54.300;10.180;2023-01-01T11:30:41;0.30;;;0.30;;
14056;SDS011;7103;54.300;10.180;2023-01-01T11:33:36;0.20;;;0.20;;
14056;SDS011;7103;54.300;10.180;2023-01-01T11:36:10;0.20;;;0.20;;
14056;SDS011;7103;54.300;10.180;2023-01-01T11:38:45;0.20;;;0.20;;
14056;SDS011;7103;54.300;10.180;2023-01-01T11:41:15;0.30;;;0.30;;
14056;SDS011;7103;54.300;10.180;2023-01-01T11:43:43;0.30;;;0.30;;
14056;SDS011;7103;54.300;10.180;2023-01-01T11:46:14;0.30;;;0.30;;
14056;SDS011;7103;54.300;10.180;2023-01-01T11:48:48;0.30;;;0.30;;
14056;SDS011;7103;54.300;10.180;2023-01-01T11:51:31;0.20;;;0.20;;
14056;SDS011;7103;54.300;10.180;2023-01-01T11:54:09;0.30;;;0.30;;
14056;SDS011;7103;54.300;10.180;2023-01-01T11:56:50;0.30;;;0.30;;
14056;SDS011;7103;54.300;10.180;2023-01-01T11:59:26;0.20;;;0.20;;
14056;SDS011;7103;54.300;10.180;2023-01-01T12:01:58;0.20;;;0.20;;
14056;SDS011;7103;54.300;10.180;2023-01-01T12:07:17;0.30;;;0.30;;
14056;SDS011;7103;54.300;10.180;2023-01-01T12:12:23;0.30;;;0.30;;
14056;SDS011;7103;54.300;10.180;2023-01-01T12:14:57;0.30;;;0.30;;
14056;SDS011;7103;54.300;10.180;2023-01-01T12:17:46;0.30;;;0.30;;
14056;SDS011;7103;54.300;10.180;2023-01-01T12:20:36;0.30;;;0.30;;
14056;SDS011;7103;54.300;10.180;2023-01-01T12:23:08;0.30;;;0.30;;
14056;SDS011;7103;54.300;10.180;2023-01-01T12:25:40;0.30;;;0.30;;
14056;SDS011;7103;54.300;10.180;2023-01-01T12:34:23;0.20;;;0.20;;
14056;SDS011;7103;54.300;10.180;2023-01-01T12:37:07;0.20;;;0.20;;
14056;SDS011;7103;54.300;10.180;2023-01-01T12:45:45;0.30;;;0.30;;
14056;SDS011;7103;54.300;10.180;2023-01-01T12:57:16;0.30;;;0.30;;
14056;SDS011;7103;54.300;10.180;2023-01-01T12:59:52;0.20;;;0.20;;
14056;SDS011;7103;54.300;10.180;2023-01-01T13:02:24;0.30;;;0.30;;
14056;SDS011;7103;54.300;10.180;2023-01-01T13:05:06;0.30;;;0.30;;
14056;SDS011;7103;54.300;10.180;2023-01-01T13:07:42;0.30;;;0.30;;
14056;SDS011;7103;54.300;10.180;2023-01-01T13:10:18;0.20;;;0.20;;
14056;SDS011;7103;54.300;10.180;2023-01-01T13:12:53;0.30;;;0.30;;
14056;SDS011;7103;54.300;10.180;2023-01-01T13:15:42;0.20;;;0.20;;
14056;SDS011;7103;54.300;10.180;2023-01-01T13:20:44;0.20;;;0.20;;
14056;SDS011;7103;54.300;10.180;2023-01-01T13:39:52;0.30;;;0.30;;
14056;SDS011;7103;54.300;10.180;2023-01-01T13:42:40;0.20;;;0.20;;
14056;SDS011;7103;54.300;10.180;2023-01-01T13:51:20;0.20;;;0.20;;
14056;SDS011;7103;54.300;10.180;2023-01-01T13:57:00;0.30;;;0.30;;
14056;SDS011;7103;54.300;10.180;2023-01-01T14:02:34;0.30;;;0.30;;
14056;SDS011;7103;54.300;10.180;2023-01-01T14:07:52;0.30;;;0.30;;
14056;SDS011;7103;54.300;10.180;2023-01-01T14:12:47;0.20;;;0.20;;
14056;SDS011;7103;54.300;10.180;2023-01-01T14:17:49;0.20;;;0.20;;
14056;SDS011;7103;54.300;10.180;2023-01-01T14:20:17;0.30;;;0.30;;
14056;SDS011;7103;54.300;10.180;2023-01-01T14:22:47;0.30;;;0.30;;
14056;SDS011;7103;54.300;10.180;2023-01-01T14:25:19;0.20;;;0.20;;
14056;SDS011;7103;54.300;10.180;2023-01-01T14:27:54;0.20;;;0.20;;
14056;SDS011;7103;54.300;10.180;2023-01-01T14:30:23;0.20;;;0.20;;
14056;SDS011;7103;54.300;10.180;2023-01-01T14:32:55;0.20;;;0.20;;
14056;SDS011;7103;54.300;10.180;2023-01-01T14:35:22;0.30;;;0.30;;
14056;SDS011;7103;54.300;10.180;2023-01-01T14:37:50;0.30;;;0.30;;
14056;SDS011;7103;54.300;10.180;2023-01-01T14:40:18;0.20;;;0.20;;
14056;SDS011;7103;54.300;10.180;2023-01-01T14:42:53;0.30;;;0.30;;
14056;SDS011;7103;54.300;10.180;2023-01-01T14:45:33;0.30;;;0.30;;
14056;SDS011;7103;54.300;10.180;2023-01-01T14:48:02;0.23;;;0.23;;
14056;SDS011;7103;54.300;10.180;2023-01-01T14:50:31;0.23;;;0.23;;
14056;SDS011;7103;54.300;10.180;2023-01-01T14:53:03;0.20;;;0.20;;
14056;SDS011;7103;54.300;10.180;2023-01-01T14:55:36;0.30;;;0.30;;
14056;SDS011;7103;54.300;10.180;2023-01-01T14:58:06;0.20;;;0.20;;
14056;SDS011;7103;54.300;10.180;2023-01-01T15:00:47;0.20;;;0.20;;
14056;SDS011;7103;54.300;10.180;2023-01-01T15:03:18;0.20;;;0.20;;
14056;SDS011;7103;54.300;10.180;2023-01-01T15:05:57;0.20;;;0.20;;
14056;SDS011;7103;54.300;10.180;2023-01-01T15:08:24;0.20;;;0.20;;
14056;SDS011;7103;54.300;10.180;2023-01-01T15:10:52;0.20;;;0.20;;
14056;SDS011;7103;54.300;10.180;2023-01-01T15:13:24;0.20;;;0.20;;
14056;SDS011;7103;54.300;10.180;2023-01-01T15:15:55;0.20;;;0.20;;
14056;SDS011;7103;54.300;10.180;2023-01-01T15:18:41;0.30;;;0.30;;
14056;SDS011;7103;54.300;10.180;2023-01-01T15:26:50;0.20;;;0.20;;
14056;SDS011;7103;54.300;10.180;2023-01-01T15:29:44;0.30;;;0.30;;
14056;SDS011;7103;54.300;10.180;2023-01-01T15:32:18;0.20;;;0.20;;
14056;SDS011;7103;54.300;10.180;2023-01-01T15:34:57;0.20;;;0.20;;
14056;SDS011;7103;54.300;10.180;2023-01-01T15:37:32;0.20;;;0.20;;
14056;SDS011;7103;54.300;10.180;2023-01-01T15:42:46;0.20;;;0.20;;
14056;SDS011;7103;54.300;10.180;2023-01-01T15:45:38;0.30;;;0.30;;
14056;SDS011;7103;54.300;10.180;2023-01-01T15:50:37;0.20;;;0.20;;
14056;SDS011;7103;54.300;10.180;2023-01-01T15:53:23;0.20;;;0.20;;
14056;SDS011;7103;54.300;10.180;2023-01-01T15:55:59;0.20;;;0.20;;
14056;SDS011;7103;54.300;10.180;2023-01-01T15:58:34;0.30;;;0.30;;
14056;SDS011;7103;54.300;10.180;2023-01-01T16:01:06;0.20;;;0.20;;
14056;SDS011;7103;54.300;10.180;2023-01-01T16:03:39;0.20;;;0.20;;
14056;SDS011;7103;54.300;10.180;2023-01-01T16:06:07;0.20;;;0.20;;
14056;SDS011;7103;54.300;10.180;2023-01-01T16:08:43;0.20;;;0.20;;
14056;SDS011;7103;54.300;10.180;2023-01-01T16:11:11;0.20;;;0.20;;
14056;SDS011;7103;54.300;10.180;2023-01-01T16:13:39;0.20;;;0.20;;
14056;SDS011;7103;54.300;10.180;2023-01-01T16:16:24;0.20;;;0.20;;
14056;SDS011;7103;54.300;10.180;2023-01-01T16:18:53;0.30;;;0.30;;
14056;SDS011;7103;54.300;10.180;2023-01-01T16:21:25;0.20;;;0.20;;
14056;SDS011;7103;54.300;10.180;2023-01-01T16:23:53;0.20;;;0.20;;
14056;SDS011;7103;54.300;10.180;2023-01-01T16:26:21;0.20;;;0.20;;
14056;SDS011;7103;54.300;10.180;2023-01-01T16:28:48;0.20;;;0.20;;
14056;SDS011;7103;54.300;10.180;2023-01-01T16:31:15;0.20;;;0.20;;
14056;SDS011;7103;54.300;10.180;2023-01-01T16:33:46;0.20;;;0.20;;
14056;SDS011;7103;54.300;10.180;2023-01-01T16:36:17;0.20;;;0.20;;
14056;SDS011;7103;54.300;10.180;2023-01-01T16:38:44;0.20;;;0.20;;
14056;SDS011;7103;54.300;10.180;2023-01-01T16:41:14;0.20;;;0.20;;
14056;SDS011;7103;54.300;10.180;2023-01-01T16:43:43;0.20;;;0.20;;
14056;SDS011;7103;54.300;10.180;2023-01-01T16:46:11;0.20;;;0.20;;
14056;SDS011;7103;54.300;10.180;2023-01-01T16:48:39;0.20;;;0.20;;
14056;SDS011;7103;54.300;10.180;2023-01-01T16:51:10;0.20;;;0.20;;
14056;SDS011;7103;54.300;10.180;2023-01-01T16:53:42;0.20;;;0.20;;
14056;SDS011;7103;54.300;10.180;2023-01-01T16:56:10;0.20;;;0.20;;
14056;SDS011;7103;54.300;10.180;2023-01-01T16:58:38;0.20;;;0.20;;
14056;SDS011;7103;54.300;10.180;2023-01-01T17:01:25;0.20;;;0.20;;
14056;SDS011;7103;54.300;10.180;2023-01-01T17:03:52;0.20;;;0.20;;
14056;SDS011;7103;54.300;10.180;2023-01-01T17:06:19;0.20;;;0.20;;
14056;SDS011;7103;54.300;10.180;2023-01-01T17:08:46;0.20;;;0.20;;
14056;SDS011;7103;54.300;10.180;2023-01-01T17:11:14;0.20;;;0.20;;
14056;SDS011;7103;54.300;10.180;2023-01-01T17:13:43;0.20;;;0.20;;
14056;SDS011;7103;54.300;10.180;2023-01-01T17:16:11;0.20;;;0.20;;
14056;SDS011;7103;54.300;10.180;2023-01-01T17:18:47;0.30;;;0.30;;
14056;SDS011;7103;54.300;10.180;2023-01-01T17:21:37;0.20;;;0.20;;
14056;SDS011;7103;54.300;10.180;2023-01-01T17:24:05;0.30;;;0.30;;
14056;SDS011;7103;54.300;10.180;2023-01-01T17:26:32;0.20;;;0.20;;
14056;SDS011;7103;54.300;10.180;2023-01-01T17:29:00;0.20;;;0.20;;
14056;SDS011;7103;54.300;10.180;2023-01-01T17:31:28;0.20;;;0.20;;